sensor_id;sensor_type;location;lat;lon;timestamp;temperature;humidity
15455;DHT22;21057;51.024;7.540;2022-08-19T00:01:16;19.70;99.90
15455;DHT22;21057;51.024;7.540;2022-08-19T00:03:43;19.70;99.90
15455;DHT22;21057;51.024;7.540;2022-08-19T00:06:10;19.80;99.90
15455;DHT22;21057;51.024;7.540;2022-08-19T00:08:37;19.70;99.90
15455;DHT22;21057;51.024;7.540;2022-08-19T00:11:04;19.80;99.90
15455;DHT22;21057;51.024;7.540;2022-08-19T00:13:33;19.80;99.90
15455;DHT22;21057;51.024;7.540;2022-08-19T00:16:01;20.10;99.90
15455;DHT22;21057;51.024;7.540;2022-08-19T00:18:28;20.10;99.90
15455;DHT22;21057;51.024;7.540;2022-08-19T00:20:55;19.90;99.90
15455;DHT22;21057;51.024;7.540;2022-08-19T00:23:21;19.90;99.90
15455;DHT22;21057;51.024;7.540;2022-08-19T00:25:48;19.90;99.90
15455;DHT22;21057;51.024;7.540;2022-08-19T00:28:16;19.90;99.90
15455;DHT22;21057;51.024;7.540;2022-08-19T00:30:44;19.80;99.90
15455;DHT22;21057;51.024;7.540;2022-08-19T00:33:11;19.70;99.90
15455;DHT22;21057;51.024;7.540;2022-08-19T00:35:39;19.60;99.90
15455;DHT22;21057;51.024;7.540;2022-08-19T00:38:06;19.60;99.90
15455;DHT22;21057;51.024;7.540;2022-08-19T00:40:33;19.50;99.90
15455;DHT22;21057;51.024;7.540;2022-08-19T00:42:59;19.50;99.90
15455;DHT22;21057;51.024;7.540;2022-08-19T00:45:28;19.40;99.90
15455;DHT22;21057;51.024;7.540;2022-08-19T00:47:59;19.30;99.90
15455;DHT22;21057;51.024;7.540;2022-08-19T00:50:29;19.20;99.90
15455;DHT22;21057;51.024;7.540;2022-08-19T00:52:56;19.10;99.90
15455;DHT22;21057;51.024;7.540;2022-08-19T00:55:26;19.00;99.90
15455;DHT22;21057;51.024;7.540;2022-08-19T00:57:58;18.90;99.90
15455;DHT22;21057;51.024;7.540;2022-08-19T01:00:28;18.90;99.90
15455;DHT22;21057;51.024;7.540;2022-08-19T01:02:55;18.80;99.90
15455;DHT22;21057;51.024;7.540;2022-08-19T01:05:26;18.80;99.90
15455;DHT22;21057;51.024;7.540;2022-08-19T01:07:54;18.70;99.90
15455;DHT22;21057;51.024;7.540;2022-08-19T01:10:25;18.60;99.90
15455;DHT22;21057;51.024;7.540;2022-08-19T01:12:55;18.60;99.90
15455;DHT22;21057;51.024;7.540;2022-08-19T01:15:26;18.60;99.90
15455;DHT22;21057;51.024;7.540;2022-08-19T01:17:55;18.60;99.90
15455;DHT22;21057;51.024;7.540;2022-08-19T01:20:25;18.60;99.90
15455;DHT22;21057;51.024;7.540;2022-08-19T01:22:56;18.70;99.90
15455;DHT22;21057;51.024;7.540;2022-08-19T01:25:27;18.70;99.90
15455;DHT22;21057;51.024;7.540;2022-08-19T01:27:55;18.70;99.90
15455;DHT22;21057;51.024;7.540;2022-08-19T01:30:25;18.60;99.90
15455;DHT22;21057;51.024;7.540;2022-08-19T01:32:53;18.60;99.90
15455;DHT22;21057;51.024;7.540;2022-08-19T01:35:22;18.70;99.90
15455;DHT22;21057;51.024;7.540;2022-08-19T01:37:53;18.70;99.90
15455;DHT22;21057;51.024;7.540;2022-08-19T01:40:22;18.80;99.90
15455;DHT22;21057;51.024;7.540;2022-08-19T01:42:51;18.90;99.90
15455;DHT22;21057;51.024;7.540;2022-08-19T01:45:21;18.90;99.90
15455;DHT22;21057;51.024;7.540;2022-08-19T01:47:48;19.00;99.90
15455;DHT22;21057;51.024;7.540;2022-08-19T01:50:16;19.10;99.90
15455;DHT22;21057;51.024;7.540;2022-08-19T01:52:44;19.10;99.90
15455;DHT22;21057;51.024;7.540;2022-08-19T01:55:14;19.10;99.90
15455;DHT22;21057;51.024;7.540;2022-08-19T01:57:44;19.10;99.90
15455;DHT22;21057;51.024;7.540;2022-08-19T02:00:14;19.10;99.90
15455;DHT22;21057;51.024;7.540;2022-08-19T02:02:42;18.90;99.90
15455;DHT22;21057;51.024;7.540;2022-08-19T02:05:09;18.90;99.90
15455;DHT22;21057;51.024;7.540;2022-08-19T02:07:38;18.80;99.90
15455;DHT22;21057;51.024;7.540;2022-08-19T02:10:07;18.90;99.90
15455;DHT22;21057;51.024;7.540;2022-08-19T02:12:35;18.80;99.90
15455;DHT22;21057;51.024;7.540;2022-08-19T02:15:03;19.00;99.90
15455;DHT22;21057;51.024;7.540;2022-08-19T02:17:32;19.00;99.90
15455;DHT22;21057;51.024;7.540;2022-08-19T02:19:59;18.90;99.90
15455;DHT22;21057;51.024;7.540;2022-08-19T02:22:26;18.80;99.90
15455;DHT22;21057;51.024;7.540;2022-08-19T02:24:53;18.80;99.90
15455;DHT22;21057;51.024;7.540;2022-08-19T02:27:20;18.70;99.90
15455;DHT22;21057;51.024;7.540;2022-08-19T02:29:50;18.60;99.90
15455;DHT22;21057;51.024;7.540;2022-08-19T02:32:18;18.50;99.90
15455;DHT22;21057;51.024;7.540;2022-08-19T02:34:45;18.40;99.90
15455;DHT22;21057;51.024;7.540;2022-08-19T02:37:12;18.40;99.90
15455;DHT22;21057;51.024;7.540;2022-08-19T02:39:53;18.40;99.90
15455;DHT22;21057;51.024;7.540;2022-08-19T02:42:20;18.40;99.90
15455;DHT22;21057;51.024;7.540;2022-08-19T02:44:48;18.30;99.90
15455;DHT22;21057;51.024;7.540;2022-08-19T02:47:15;18.30;99.90
15455;DHT22;21057;51.024;7.540;2022-08-19T02:49:44;18.30;99.90
15455;DHT22;21057;51.024;7.540;2022-08-19T02:52:11;18.30;99.90
15455;DHT22;21057;51.024;7.540;2022-08-19T02:54:38;18.20;99.90
15455;DHT22;21057;51.024;7.540;2022-08-19T02:57:05;18.20;99.90
15455;DHT22;21057;51.024;7.540;2022-08-19T02:59:33;18.20;99.90
15455;DHT22;21057;51.024;7.540;2022-08-19T03:02:01;18.20;99.90
15455;DHT22;21057;51.024;7.540;2022-08-19T03:04:28;18.10;99.90
15455;DHT22;21057;51.024;7.540;2022-08-19T03:06:56;18.10;99.90
15455;DHT22;21057;51.024;7.540;2022-08-19T03:09:23;18.20;99.90
15455;DHT22;21057;51.024;7.540;2022-08-19T03:11:50;18.20;99.90
15455;DHT22;21057;51.024;7.540;2022-08-19T03:14:16;18.10;99.90
15455;DHT22;21057;51.024;7.540;2022-08-19T03:16:47;18.00;99.90
15455;DHT22;21057;51.024;7.540;2022-08-19T03:19:18;18.10;99.90
15455;DHT22;21057;51.024;7.540;2022-08-19T03:21:46;18.10;99.90
15455;DHT22;21057;51.024;7.540;2022-08-19T03:24:14;18.00;99.90
15455;DHT22;21057;51.024;7.540;2022-08-19T03:26:44;18.20;99.90
15455;DHT22;21057;51.024;7.540;2022-08-19T03:29:12;18.20;99.90
15455;DHT22;21057;51.024;7.540;2022-08-19T03:31:41;18.20;99.90
15455;DHT22;21057;51.024;7.540;2022-08-19T03:34:09;18.00;99.90
15455;DHT22;21057;51.024;7.540;2022-08-19T03:36:38;18.00;99.90
15455;DHT22;21057;51.024;7.540;2022-08-19T03:39:05;18.10;99.90
15455;DHT22;21057;51.024;7.540;2022-08-19T03:41:38;18.30;99.90
15455;DHT22;21057;51.024;7.540;2022-08-19T03:44:05;18.40;99.90
15455;DHT22;21057;51.024;7.540;2022-08-19T03:46:33;18.50;99.90
15455;DHT22;21057;51.024;7.540;2022-08-19T03:49:02;18.70;99.90
15455;DHT22;21057;51.024;7.540;2022-08-19T03:51:34;18.90;99.90
15455;DHT22;21057;51.024;7.540;2022-08-19T03:54:05;19.00;99.90
15455;DHT22;21057;51.024;7.540;2022-08-19T03:56:34;19.00;99.90
15455;DHT22;21057;51.024;7.540;2022-08-19T03:59:02;18.90;99.90
15455;DHT22;21057;51.024;7.540;2022-08-19T04:01:29;18.90;99.90
15455;DHT22;21057;51.024;7.540;2022-08-19T04:03:58;18.90;99.90
15455;DHT22;21057;51.024;7.540;2022-08-19T04:06:27;18.80;99.90
15455;DHT22;21057;51.024;7.540;2022-08-19T04:08:57;18.80;99.90
15455;DHT22;21057;51.024;7.540;2022-08-19T04:11:27;18.80;99.90
15455;DHT22;21057;51.024;7.540;2022-08-19T04:13:55;19.00;99.90
15455;DHT22;21057;51.024;7.540;2022-08-19T04:16:24;19.00;99.90
15455;DHT22;21057;51.024;7.540;2022-08-19T04:18:54;18.80;99.90
15455;DHT22;21057;51.024;7.540;2022-08-19T04:21:23;18.70;99.90
15455;DHT22;21057;51.024;7.540;2022-08-19T04:23:50;18.60;99.90
15455;DHT22;21057;51.024;7.540;2022-08-19T04:26:21;18.50;99.90
15455;DHT22;21057;51.024;7.540;2022-08-19T04:28:50;18.30;99.90
15455;DHT22;21057;51.024;7.540;2022-08-19T04:31:20;18.10;99.90
15455;DHT22;21057;51.024;7.540;2022-08-19T04:33:47;18.00;99.90
15455;DHT22;21057;51.024;7.540;2022-08-19T04:36:18;17.90;99.90
15455;DHT22;21057;51.024;7.540;2022-08-19T04:38:46;17.80;99.90
15455;DHT22;21057;51.024;7.540;2022-08-19T04:41:14;17.90;99.90
15455;DHT22;21057;51.024;7.540;2022-08-19T04:43:59;17.80;99.90
15455;DHT22;21057;51.024;7.540;2022-08-19T04:46:27;17.80;99.90
15455;DHT22;21057;51.024;7.540;2022-08-19T04:48:55;17.90;99.90
15455;DHT22;21057;51.024;7.540;2022-08-19T04:51:23;18.00;99.90
15455;DHT22;21057;51.024;7.540;2022-08-19T04:53:50;17.90;99.90
15455;DHT22;21057;51.024;7.540;2022-08-19T04:56:18;17.90;99.90
15455;DHT22;21057;51.024;7.540;2022-08-19T04:58:49;17.80;99.90
15455;DHT22;21057;51.024;7.540;2022-08-19T05:01:21;17.80;99.90
15455;DHT22;21057;51.024;7.540;2022-08-19T05:03:48;17.80;99.90
15455;DHT22;21057;51.024;7.540;2022-08-19T05:06:17;17.80;99.90
15455;DHT22;21057;51.024;7.540;2022-08-19T05:08:45;17.90;99.90
15455;DHT22;21057;51.024;7.540;2022-08-19T05:11:13;17.90;99.90
15455;DHT22;21057;51.024;7.540;2022-08-19T05:13:41;18.00;99.90
15455;DHT22;21057;51.024;7.540;2022-08-19T05:16:10;18.10;99.90
15455;DHT22;21057;51.024;7.540;2022-08-19T05:18:39;18.10;99.90
15455;DHT22;21057;51.024;7.540;2022-08-19T05:21:24;18.20;99.90
15455;DHT22;21057;51.024;7.540;2022-08-19T05:24:08;18.30;99.90
15455;DHT22;21057;51.024;7.540;2022-08-19T05:26:36;18.20;99.90
15455;DHT22;21057;51.024;7.540;2022-08-19T05:29:04;18.30;99.90
15455;DHT22;21057;51.024;7.540;2022-08-19T05:31:33;18.50;99.90
15455;DHT22;21057;51.024;7.540;2022-08-19T05:34:02;18.80;99.90
15455;DHT22;21057;51.024;7.540;2022-08-19T05:36:35;18.70;99.90
15455;DHT22;21057;51.024;7.540;2022-08-19T05:39:07;18.70;99.90
15455;DHT22;21057;51.024;7.540;2022-08-19T05:41:34;18.80;99.90
15455;DHT22;21057;51.024;7.540;2022-08-19T05:44:04;18.80;99.90
15455;DHT22;21057;51.024;7.540;2022-08-19T05:46:35;18.80;99.90
15455;DHT22;21057;51.024;7.540;2022-08-19T05:49:04;18.90;99.90
15455;DHT22;21057;51.024;7.540;2022-08-19T05:51:32;19.00;99.90
15455;DHT22;21057;51.024;7.540;2022-08-19T05:54:00;19.10;99.90
15455;DHT22;21057;51.024;7.540;2022-08-19T05:56:27;19.20;99.90
15455;DHT22;21057;51.024;7.540;2022-08-19T05:58:56;19.30;99.90
15455;DHT22;21057;51.024;7.540;2022-08-19T06:01:24;19.30;99.90
15455;DHT22;21057;51.024;7.540;2022-08-19T06:03:52;19.30;99.90
15455;DHT22;21057;51.024;7.540;2022-08-19T06:06:20;19.40;99.90
15455;DHT22;21057;51.024;7.540;2022-08-19T06:08:47;19.50;99.90
15455;DHT22;21057;51.024;7.540;2022-08-19T06:11:19;19.70;99.90
15455;DHT22;21057;51.024;7.540;2022-08-19T06:13:48;19.90;99.90
15455;DHT22;21057;51.024;7.540;2022-08-19T06:16:17;19.90;99.90
15455;DHT22;21057;51.024;7.540;2022-08-19T06:18:50;19.90;99.90
15455;DHT22;21057;51.024;7.540;2022-08-19T06:21:21;20.00;99.90
15455;DHT22;21057;51.024;7.540;2022-08-19T06:23:49;19.90;99.90
15455;DHT22;21057;51.024;7.540;2022-08-19T06:26:18;20.00;99.90
15455;DHT22;21057;51.024;7.540;2022-08-19T06:28:47;20.20;99.90
15455;DHT22;21057;51.024;7.540;2022-08-19T06:31:15;20.10;99.90
15455;DHT22;21057;51.024;7.540;2022-08-19T06:33:42;20.20;99.90
15455;DHT22;21057;51.024;7.540;2022-08-19T06:36:17;20.30;99.90
15455;DHT22;21057;51.024;7.540;2022-08-19T06:38:45;20.40;99.90
15455;DHT22;21057;51.024;7.540;2022-08-19T06:41:12;20.40;99.90
15455;DHT22;21057;51.024;7.540;2022-08-19T06:43:39;20.50;99.90
15455;DHT22;21057;51.024;7.540;2022-08-19T06:46:10;20.70;99.90
15455;DHT22;21057;51.024;7.540;2022-08-19T06:48:38;20.80;99.90
15455;DHT22;21057;51.024;7.540;2022-08-19T06:51:05;20.90;99.90
15455;DHT22;21057;51.024;7.540;2022-08-19T06:53:33;21.10;99.90
15455;DHT22;21057;51.024;7.540;2022-08-19T06:56:01;21.20;99.90
15455;DHT22;21057;51.024;7.540;2022-08-19T06:58:29;21.10;99.90
15455;DHT22;21057;51.024;7.540;2022-08-19T07:00:59;21.10;99.90
15455;DHT22;21057;51.024;7.540;2022-08-19T07:03:30;21.10;99.90
15455;DHT22;21057;51.024;7.540;2022-08-19T07:05:58;21.30;99.90
15455;DHT22;21057;51.024;7.540;2022-08-19T07:08:28;21.50;99.90
15455;DHT22;21057;51.024;7.540;2022-08-19T07:10:55;21.70;99.90
15455;DHT22;21057;51.024;7.540;2022-08-19T07:13:24;21.60;99.90
15455;DHT22;21057;51.024;7.540;2022-08-19T07:15:51;21.80;99.90
15455;DHT22;21057;51.024;7.540;2022-08-19T07:18:20;21.90;99.90
15455;DHT22;21057;51.024;7.540;2022-08-19T07:20:47;21.80;99.90
15455;DHT22;21057;51.024;7.540;2022-08-19T07:23:14;21.80;99.90
15455;DHT22;21057;51.024;7.540;2022-08-19T07:25:41;21.90;99.90
15455;DHT22;21057;51.024;7.540;2022-08-19T07:28:08;22.10;99.90
15455;DHT22;21057;51.024;7.540;2022-08-19T07:30:38;22.30;99.90
15455;DHT22;21057;51.024;7.540;2022-08-19T07:33:06;22.20;99.90
15455;DHT22;21057;51.024;7.540;2022-08-19T07:35:33;22.10;99.90
15455;DHT22;21057;51.024;7.540;2022-08-19T07:38:00;21.70;99.90
15455;DHT22;21057;51.024;7.540;2022-08-19T07:40:30;21.60;99.90
15455;DHT22;21057;51.024;7.540;2022-08-19T07:42:57;21.60;99.90
15455;DHT22;21057;51.024;7.540;2022-08-19T07:45:24;21.60;99.90
15455;DHT22;21057;51.024;7.540;2022-08-19T07:47:52;21.60;99.90
15455;DHT22;21057;51.024;7.540;2022-08-19T07:50:21;21.70;99.90
15455;DHT22;21057;51.024;7.540;2022-08-19T07:52:48;21.90;99.90
15455;DHT22;21057;51.024;7.540;2022-08-19T07:55:19;22.00;99.90
15455;DHT22;21057;51.024;7.540;2022-08-19T07:57:46;22.30;99.90
15455;DHT22;21057;51.024;7.540;2022-08-19T08:00:14;22.50;99.90
15455;DHT22;21057;51.024;7.540;2022-08-19T08:02:41;22.60;99.90
15455;DHT22;21057;51.024;7.540;2022-08-19T08:05:10;22.80;99.90
15455;DHT22;21057;51.024;7.540;2022-08-19T08:07:55;22.60;99.90
15455;DHT22;21057;51.024;7.540;2022-08-19T08:10:39;22.70;99.90
15455;DHT22;21057;51.024;7.540;2022-08-19T08:13:06;23.00;99.90
15455;DHT22;21057;51.024;7.540;2022-08-19T08:15:33;23.20;99.90
15455;DHT22;21057;51.024;7.540;2022-08-19T08:18:02;23.40;99.90
15455;DHT22;21057;51.024;7.540;2022-08-19T08:20:31;23.50;99.90
15455;DHT22;21057;51.024;7.540;2022-08-19T08:22:58;23.60;99.90
15455;DHT22;21057;51.024;7.540;2022-08-19T08:25:42;23.60;99.90
15455;DHT22;21057;51.024;7.540;2022-08-19T08:28:09;23.50;99.90
15455;DHT22;21057;51.024;7.540;2022-08-19T08:30:36;23.60;99.90
15455;DHT22;21057;51.024;7.540;2022-08-19T08:33:07;23.50;99.90
15455;DHT22;21057;51.024;7.540;2022-08-19T08:35:35;23.60;99.90
15455;DHT22;21057;51.024;7.540;2022-08-19T08:38:03;24.00;99.90
15455;DHT22;21057;51.024;7.540;2022-08-19T08:40:39;24.20;99.90
15455;DHT22;21057;51.024;7.540;2022-08-19T08:43:18;24.50;99.90
15455;DHT22;21057;51.024;7.540;2022-08-19T08:45:50;24.50;99.90
15455;DHT22;21057;51.024;7.540;2022-08-19T08:48:22;24.30;99.90
15455;DHT22;21057;51.024;7.540;2022-08-19T08:50:53;24.10;99.90
15455;DHT22;21057;51.024;7.540;2022-08-19T08:53:21;24.20;99.90
15455;DHT22;21057;51.024;7.540;2022-08-19T08:55:49;24.30;99.90
15455;DHT22;21057;51.024;7.540;2022-08-19T08:58:20;24.40;99.90
15455;DHT22;21057;51.024;7.540;2022-08-19T09:00:51;24.30;99.90
15455;DHT22;21057;51.024;7.540;2022-08-19T09:03:20;24.50;99.90
15455;DHT22;21057;51.024;7.540;2022-08-19T09:05:59;24.70;99.90
15455;DHT22;21057;51.024;7.540;2022-08-19T09:08:36;24.70;98.30
15455;DHT22;21057;51.024;7.540;2022-08-19T09:11:08;24.70;98.90
15455;DHT22;21057;51.024;7.540;2022-08-19T09:13:44;25.10;98.60
15455;DHT22;21057;51.024;7.540;2022-08-19T09:16:18;24.90;97.20
15455;DHT22;21057;51.024;7.540;2022-08-19T09:18:48;24.80;98.90
15455;DHT22;21057;51.024;7.540;2022-08-19T09:21:20;24.90;97.20
15455;DHT22;21057;51.024;7.540;2022-08-19T09:23:48;24.80;97.30
15455;DHT22;21057;51.024;7.540;2022-08-19T09:26:17;25.10;96.90
15455;DHT22;21057;51.024;7.540;2022-08-19T09:28:47;25.40;97.00
15455;DHT22;21057;51.024;7.540;2022-08-19T09:31:16;25.70;97.10
15455;DHT22;21057;51.024;7.540;2022-08-19T09:33:44;26.10;95.40
15455;DHT22;21057;51.024;7.540;2022-08-19T09:36:13;26.20;94.10
15455;DHT22;21057;51.024;7.540;2022-08-19T09:38:42;26.50;94.50
15455;DHT22;21057;51.024;7.540;2022-08-19T09:41:12;26.80;93.30
15455;DHT22;21057;51.024;7.540;2022-08-19T09:43:39;26.50;93.60
15455;DHT22;21057;51.024;7.540;2022-08-19T09:46:07;25.70;94.40
15455;DHT22;21057;51.024;7.540;2022-08-19T09:48:35;25.10;95.10
15455;DHT22;21057;51.024;7.540;2022-08-19T09:51:03;25.00;96.00
15455;DHT22;21057;51.024;7.540;2022-08-19T09:53:30;25.30;95.20
15455;DHT22;21057;51.024;7.540;2022-08-19T09:55:59;25.70;95.30
15455;DHT22;21057;51.024;7.540;2022-08-19T09:58:26;26.50;93.60
15455;DHT22;21057;51.024;7.540;2022-08-19T10:00:55;27.00;92.10
15455;DHT22;21057;51.024;7.540;2022-08-19T10:03:22;27.00;91.30
15455;DHT22;21057;51.024;7.540;2022-08-19T10:05:49;27.40;90.50
15455;DHT22;21057;51.024;7.540;2022-08-19T10:08:20;27.40;90.70
15455;DHT22;21057;51.024;7.540;2022-08-19T10:10:48;28.10;90.50
15455;DHT22;21057;51.024;7.540;2022-08-19T10:13:19;28.80;87.40
15455;DHT22;21057;51.024;7.540;2022-08-19T10:15:48;28.00;83.40
15455;DHT22;21057;51.024;7.540;2022-08-19T10:18:16;27.50;85.70
15455;DHT22;21057;51.024;7.540;2022-08-19T10:20:44;26.90;87.60
15455;DHT22;21057;51.024;7.540;2022-08-19T10:23:12;26.60;87.90
15455;DHT22;21057;51.024;7.540;2022-08-19T10:25:39;26.60;86.30
15455;DHT22;21057;51.024;7.540;2022-08-19T10:28:06;26.00;86.40
15455;DHT22;21057;51.024;7.540;2022-08-19T10:30:35;26.30;88.20
15455;DHT22;21057;51.024;7.540;2022-08-19T10:33:02;27.00;87.20
15455;DHT22;21057;51.024;7.540;2022-08-19T10:35:29;27.90;83.60
15455;DHT22;21057;51.024;7.540;2022-08-19T10:37:56;28.40;83.20
15455;DHT22;21057;51.024;7.540;2022-08-19T10:40:25;29.00;78.00
15455;DHT22;21057;51.024;7.540;2022-08-19T10:42:52;29.90;76.80
15455;DHT22;21057;51.024;7.540;2022-08-19T10:45:19;28.60;78.40
15455;DHT22;21057;51.024;7.540;2022-08-19T10:47:49;27.60;81.40
15455;DHT22;21057;51.024;7.540;2022-08-19T10:50:16;27.90;83.70
15455;DHT22;21057;51.024;7.540;2022-08-19T10:53:04;29.10;82.60
15455;DHT22;21057;51.024;7.540;2022-08-19T10:55:34;30.00;78.10
15455;DHT22;21057;51.024;7.540;2022-08-19T10:58:21;29.00;75.90
15455;DHT22;21057;51.024;7.540;2022-08-19T11:00:54;28.80;79.10
15455;DHT22;21057;51.024;7.540;2022-08-19T11:03:24;28.80;77.40
15455;DHT22;21057;51.024;7.540;2022-08-19T11:06:00;29.40;76.30
15455;DHT22;21057;51.024;7.540;2022-08-19T11:08:28;29.60;74.50
15455;DHT22;21057;51.024;7.540;2022-08-19T11:10:59;30.10;72.00
15455;DHT22;21057;51.024;7.540;2022-08-19T11:13:28;30.10;69.70
15455;DHT22;21057;51.024;7.540;2022-08-19T11:16:00;29.90;71.50
15455;DHT22;21057;51.024;7.540;2022-08-19T11:18:29;29.40;73.10
15455;DHT22;21057;51.024;7.540;2022-08-19T11:21:06;29.40;71.90
15455;DHT22;21057;51.024;7.540;2022-08-19T11:23:33;29.60;71.30
15455;DHT22;21057;51.024;7.540;2022-08-19T11:26:00;30.30;70.30
15455;DHT22;21057;51.024;7.540;2022-08-19T11:28:28;30.60;71.30
15455;DHT22;21057;51.024;7.540;2022-08-19T11:30:55;30.90;68.00
15455;DHT22;21057;51.024;7.540;2022-08-19T11:33:22;30.70;69.00
15455;DHT22;21057;51.024;7.540;2022-08-19T11:35:53;31.10;70.60
15455;DHT22;21057;51.024;7.540;2022-08-19T11:38:20;31.50;69.40
15455;DHT22;21057;51.024;7.540;2022-08-19T11:40:55;32.20;68.00
15455;DHT22;21057;51.024;7.540;2022-08-19T11:43:22;30.20;69.40
15455;DHT22;21057;51.024;7.540;2022-08-19T11:45:48;29.30;72.20
15455;DHT22;21057;51.024;7.540;2022-08-19T11:48:15;29.40;74.20
15455;DHT22;21057;51.024;7.540;2022-08-19T11:50:43;29.80;74.60
15455;DHT22;21057;51.024;7.540;2022-08-19T11:53:11;29.90;73.10
15455;DHT22;21057;51.024;7.540;2022-08-19T11:55:38;30.50;74.50
15455;DHT22;21057;51.024;7.540;2022-08-19T11:58:06;31.20;73.40
15455;DHT22;21057;51.024;7.540;2022-08-19T12:00:33;31.60;71.30
15455;DHT22;21057;51.024;7.540;2022-08-19T12:03:02;31.50;70.40
15455;DHT22;21057;51.024;7.540;2022-08-19T12:05:29;30.70;70.50
15455;DHT22;21057;51.024;7.540;2022-08-19T12:07:58;29.80;72.20
15455;DHT22;21057;51.024;7.540;2022-08-19T12:10:26;30.00;70.60
15455;DHT22;21057;51.024;7.540;2022-08-19T12:12:53;30.20;70.80
15455;DHT22;21057;51.024;7.540;2022-08-19T12:15:20;30.40;68.90
15455;DHT22;21057;51.024;7.540;2022-08-19T12:17:47;30.70;68.90
15455;DHT22;21057;51.024;7.540;2022-08-19T12:20:14;30.80;68.80
15455;DHT22;21057;51.024;7.540;2022-08-19T12:22:43;31.40;66.90
15455;DHT22;21057;51.024;7.540;2022-08-19T12:25:11;32.00;65.60
15455;DHT22;21057;51.024;7.540;2022-08-19T12:27:40;31.80;65.60
15455;DHT22;21057;51.024;7.540;2022-08-19T12:30:09;31.40;65.30
15455;DHT22;21057;51.024;7.540;2022-08-19T12:32:37;31.00;64.50
15455;DHT22;21057;51.024;7.540;2022-08-19T12:35:05;31.00;65.90
15455;DHT22;21057;51.024;7.540;2022-08-19T12:37:32;31.40;64.00
15455;DHT22;21057;51.024;7.540;2022-08-19T12:39:59;31.80;62.90
15455;DHT22;21057;51.024;7.540;2022-08-19T12:42:26;31.30;63.00
15455;DHT22;21057;51.024;7.540;2022-08-19T12:44:55;31.40;63.30
15455;DHT22;21057;51.024;7.540;2022-08-19T12:47:22;31.60;61.40
15455;DHT22;21057;51.024;7.540;2022-08-19T12:49:49;31.40;62.30
15455;DHT22;21057;51.024;7.540;2022-08-19T12:52:17;31.50;61.20
15455;DHT22;21057;51.024;7.540;2022-08-19T12:54:46;31.70;61.80
15455;DHT22;21057;51.024;7.540;2022-08-19T12:57:13;32.20;60.10
15455;DHT22;21057;51.024;7.540;2022-08-19T12:59:41;32.20;59.10
15455;DHT22;21057;51.024;7.540;2022-08-19T13:02:10;31.60;60.00
15455;DHT22;21057;51.024;7.540;2022-08-19T13:04:37;31.70;62.30
15455;DHT22;21057;51.024;7.540;2022-08-19T13:07:07;31.40;59.10
15455;DHT22;21057;51.024;7.540;2022-08-19T13:09:34;31.10;59.00
15455;DHT22;21057;51.024;7.540;2022-08-19T13:12:02;31.70;59.70
15455;DHT22;21057;51.024;7.540;2022-08-19T13:14:33;32.40;56.10
15455;DHT22;21057;51.024;7.540;2022-08-19T13:17:00;31.70;56.70
15455;DHT22;21057;51.024;7.540;2022-08-19T13:19:29;31.80;57.40
15455;DHT22;21057;51.024;7.540;2022-08-19T13:21:57;31.50;59.60
15455;DHT22;21057;51.024;7.540;2022-08-19T13:24:24;32.20;60.40
15455;DHT22;21057;51.024;7.540;2022-08-19T13:26:51;32.30;59.70
15455;DHT22;21057;51.024;7.540;2022-08-19T13:29:18;32.50;59.40
15455;DHT22;21057;51.024;7.540;2022-08-19T13:32:03;32.20;58.10
15455;DHT22;21057;51.024;7.540;2022-08-19T13:34:49;32.10;58.00
15455;DHT22;21057;51.024;7.540;2022-08-19T13:37:16;32.00;58.60
15455;DHT22;21057;51.024;7.540;2022-08-19T13:40:03;31.60;58.80
15455;DHT22;21057;51.024;7.540;2022-08-19T13:42:30;32.00;57.50
15455;DHT22;21057;51.024;7.540;2022-08-19T13:44:57;32.10;59.20
15455;DHT22;21057;51.024;7.540;2022-08-19T13:47:25;32.30;57.40
15455;DHT22;21057;51.024;7.540;2022-08-19T13:49:53;32.60;58.30
15455;DHT22;21057;51.024;7.540;2022-08-19T13:52:20;33.30;57.60
15455;DHT22;21057;51.024;7.540;2022-08-19T13:54:47;33.50;56.70
15455;DHT22;21057;51.024;7.540;2022-08-19T13:57:14;33.10;55.50
15455;DHT22;21057;51.024;7.540;2022-08-19T13:59:41;33.30;54.90
15455;DHT22;21057;51.024;7.540;2022-08-19T14:02:08;32.80;55.20
15455;DHT22;21057;51.024;7.540;2022-08-19T14:04:36;32.20;56.70
15455;DHT22;21057;51.024;7.540;2022-08-19T14:07:05;32.20;56.40
15455;DHT22;21057;51.024;7.540;2022-08-19T14:09:32;31.50;57.00
15455;DHT22;21057;51.024;7.540;2022-08-19T14:11:59;31.90;57.30
15455;DHT22;21057;51.024;7.540;2022-08-19T14:14:26;32.20;56.80
15455;DHT22;21057;51.024;7.540;2022-08-19T14:16:53;31.70;56.50
15455;DHT22;21057;51.024;7.540;2022-08-19T14:19:20;31.50;56.70
15455;DHT22;21057;51.024;7.540;2022-08-19T14:21:47;32.20;56.70
15455;DHT22;21057;51.024;7.540;2022-08-19T14:24:15;32.60;55.20
15455;DHT22;21057;51.024;7.540;2022-08-19T14:26:42;32.40;54.10
15455;DHT22;21057;51.024;7.540;2022-08-19T14:29:09;32.20;54.70
15455;DHT22;21057;51.024;7.540;2022-08-19T14:31:36;32.30;54.10
15455;DHT22;21057;51.024;7.540;2022-08-19T14:34:06;31.60;54.40
15455;DHT22;21057;51.024;7.540;2022-08-19T14:36:32;31.30;53.70
15455;DHT22;21057;51.024;7.540;2022-08-19T14:39:00;31.30;54.10
15455;DHT22;21057;51.024;7.540;2022-08-19T14:41:28;31.00;54.40
15455;DHT22;21057;51.024;7.540;2022-08-19T14:43:56;31.10;55.60
15455;DHT22;21057;51.024;7.540;2022-08-19T14:46:26;31.50;53.70
15455;DHT22;21057;51.024;7.540;2022-08-19T14:48:54;32.10;53.70
15455;DHT22;21057;51.024;7.540;2022-08-19T14:51:22;32.10;53.10
15455;DHT22;21057;51.024;7.540;2022-08-19T14:53:50;32.40;52.30
15455;DHT22;21057;51.024;7.540;2022-08-19T14:56:21;32.00;54.10
15455;DHT22;21057;51.024;7.540;2022-08-19T14:58:50;31.90;55.10
15455;DHT22;21057;51.024;7.540;2022-08-19T15:01:19;31.50;55.50
15455;DHT22;21057;51.024;7.540;2022-08-19T15:03:49;31.10;55.50
15455;DHT22;21057;51.024;7.540;2022-08-19T15:06:19;30.20;56.40
15455;DHT22;21057;51.024;7.540;2022-08-19T15:08:46;30.00;57.50
15455;DHT22;21057;51.024;7.540;2022-08-19T15:11:16;30.40;57.40
15455;DHT22;21057;51.024;7.540;2022-08-19T15:13:43;29.60;59.30
15455;DHT22;21057;51.024;7.540;2022-08-19T15:16:13;29.10;60.90
15455;DHT22;21057;51.024;7.540;2022-08-19T15:18:41;28.70;61.30
15455;DHT22;21057;51.024;7.540;2022-08-19T15:21:10;28.40;62.70
15455;DHT22;21057;51.024;7.540;2022-08-19T15:23:39;28.80;62.00
15455;DHT22;21057;51.024;7.540;2022-08-19T15:26:06;29.20;60.70
15455;DHT22;21057;51.024;7.540;2022-08-19T15:28:33;29.00;60.30
15455;DHT22;21057;51.024;7.540;2022-08-19T15:31:01;28.80;61.30
15455;DHT22;21057;51.024;7.540;2022-08-19T15:33:30;29.00;64.40
15455;DHT22;21057;51.024;7.540;2022-08-19T15:35:58;29.20;62.20
15455;DHT22;21057;51.024;7.540;2022-08-19T15:38:24;29.50;60.90
15455;DHT22;21057;51.024;7.540;2022-08-19T15:40:52;29.80;60.40